createdAt,value
2023-03-10T00:00:55.502Z,2.30
2023-03-10T00:03:24.063Z,2.20
2023-03-10T00:05:54.133Z,2.30
2023-03-10T00:08:22.772Z,2.20
2023-03-10T00:10:51.311Z,2.20
2023-03-10T00:13:20.620Z,2.10
2023-03-10T00:15:50.525Z,2.10
2023-03-10T00:18:18.564Z,2.10
2023-03-10T00:20:47.488Z,2.10
2023-03-10T00:23:17.324Z,2.10
2023-03-10T00:25:46.039Z,2.10
2023-03-10T00:28:14.577Z,2.10
2023-03-10T00:30:43.155Z,2.10
2023-03-10T00:33:11.852Z,2.10
2023-03-10T00:35:40.347Z,2.00
2023-03-10T00:38:08.777Z,1.90
2023-03-10T00:40:39.542Z,1.90
2023-03-10T00:43:08.096Z,1.90
2023-03-10T00:45:37.189Z,1.90
2023-03-10T00:48:05.809Z,2.00
2023-03-10T00:50:34.369Z,2.00
2023-03-10T00:53:02.808Z,2.00
2023-03-10T00:55:30.942Z,2.00
2023-03-10T00:58:00.584Z,2.10
2023-03-10T01:00:29.071Z,2.10
2023-03-10T01:02:57.541Z,2.00
2023-03-10T01:05:29.088Z,2.00
2023-03-10T01:07:57.551Z,2.00
2023-03-10T01:10:26.698Z,2.00
2023-03-10T01:12:55.262Z,2.00
2023-03-10T01:15:25.331Z,2.00
2023-03-10T01:17:53.840Z,2.00
2023-03-10T01:20:22.461Z,2.00
2023-03-10T01:22:50.855Z,2.00
2023-03-10T01:25:19.140Z,2.00
2023-03-10T01:27:47.781Z,2.00
2023-03-10T01:30:16.774Z,2.00
2023-03-10T01:32:47.516Z,2.00
2023-03-10T01:35:16.043Z,2.00
2023-03-10T01:37:44.693Z,1.90
2023-03-10T01:40:16.572Z,1.90
2023-03-10T01:42:45.398Z,1.90
2023-03-10T01:45:47.078Z,1.90
2023-03-10T01:48:19.189Z,1.90
2023-03-10T01:50:50.931Z,2.00
2023-03-10T01:53:21.280Z,2.00
2023-03-10T01:55:54.297Z,2.00
2023-03-10T01:58:26.003Z,2.10
2023-03-10T02:00:55.785Z,2.00
2023-03-10T02:03:29.652Z,2.00
2023-03-10T02:06:01.090Z,2.10
2023-03-10T02:08:35.108Z,2.10
2023-03-10T02:11:03.979Z,2.00
2023-03-10T02:13:32.617Z,2.10
2023-03-10T02:16:01.238Z,2.00
2023-03-10T02:18:32.915Z,2.10
2023-03-10T02:21:09.224Z,2.10
2023-03-10T02:23:58.734Z,2.10
2023-03-10T02:26:38.844Z,2.10
2023-03-10T02:29:12.546Z,2.00
2023-03-10T02:31:41.262Z,2.00
2023-03-10T02:34:09.604Z,2.00
2023-03-10T02:36:37.669Z,2.00
2023-03-10T02:39:06.988Z,2.00
2023-03-10T02:41:38.143Z,2.00
2023-03-10T02:44:13.021Z,2.00
2023-03-10T02:46:41.731Z,2.00
2023-03-10T02:49:11.804Z,1.90
2023-03-10T02:51:46.284Z,1.90
2023-03-10T02:54:20.287Z,1.90
2023-03-10T02:56:49.728Z,1.90
2023-03-10T02:59:20.415Z,1.90
2023-03-10T03:01:52.720Z,1.90
2023-03-10T03:04:22.110Z,1.90
2023-03-10T03:06:50.597Z,1.90
2023-03-10T03:09:19.233Z,2.00
2023-03-10T03:11:48.498Z,2.00
2023-03-10T03:14:19.752Z,1.90
2023-03-10T03:16:50.183Z,1.90
2023-03-10T03:19:19.792Z,1.90
2023-03-10T03:21:50.090Z,1.90
2023-03-10T03:24:21.160Z,1.80
2023-03-10T03:26:50.001Z,1.80
2023-03-10T03:29:23.152Z,1.80
2023-03-10T03:31:52.006Z,1.80
2023-03-10T03:34:23.865Z,1.80
2023-03-10T03:36:54.967Z,1.80
2023-03-10T03:39:30.051Z,1.80
2023-03-10T03:42:01.579Z,1.80
2023-03-10T03:44:40.440Z,1.80
2023-03-10T03:47:10.651Z,1.70
2023-03-10T03:49:39.998Z,1.80
2023-03-10T03:52:10.070Z,1.70
2023-03-10T03:54:38.666Z,1.70
2023-03-10T03:57:07.615Z,1.70
2023-03-10T03:59:40.218Z,1.70
2023-03-10T04:02:08.993Z,1.80
2023-03-10T04:04:37.924Z,1.70
2023-03-10T04:07:09.500Z,1.70
2023-03-10T04:09:40.087Z,1.60
2023-03-10T04:12:09.874Z,1.60
2023-03-10T04:14:45.836Z,1.60
2023-03-10T04:17:16.964Z,1.60
2023-03-10T04:19:51.283Z,1.60
2023-03-10T04:22:26.018Z,1.70
2023-03-10T04:24:55.274Z,1.60
2023-03-10T04:27:23.868Z,1.70
2023-03-10T04:29:53.841Z,1.70
2023-03-10T04:32:23.484Z,1.60
2023-03-10T04:34:52.158Z,1.60
2023-03-10T04:37:21.942Z,1.60
2023-03-10T04:39:50.787Z,1.60
2023-03-10T04:42:19.755Z,1.60
2023-03-10T04:44:48.470Z,1.50
2023-03-10T04:47:18.594Z,1.50
2023-03-10T04:49:47.182Z,1.60
2023-03-10T04:52:16.272Z,1.60
2023-03-10T04:54:46.607Z,1.50
2023-03-10T04:57:18.695Z,1.50
2023-03-10T04:59:47.629Z,1.60
2023-03-10T05:02:20.760Z,1.60
2023-03-10T05:04:49.389Z,1.50
2023-03-10T05:07:17.915Z,1.50
2023-03-10T05:09:49.349Z,1.60
2023-03-10T05:12:17.961Z,1.50
2023-03-10T05:14:46.582Z,1.50
2023-03-10T05:17:15.118Z,1.50
2023-03-10T05:19:46.763Z,1.50
2023-03-10T05:22:15.425Z,1.50
2023-03-10T05:24:44.194Z,1.60
2023-03-10T05:27:15.016Z,1.60
2023-03-10T05:29:45.635Z,1.60
2023-03-10T05:32:20.669Z,1.70
2023-03-10T05:34:51.635Z,1.60
2023-03-10T05:37:20.382Z,1.60
2023-03-10T05:39:49.607Z,1.50
2023-03-10T05:42:21.433Z,1.50
2023-03-10T05:44:52.651Z,1.60
2023-03-10T05:47:21.243Z,1.50
2023-03-10T05:49:52.462Z,1.60
2023-03-10T05:52:20.674Z,1.50
2023-03-10T05:54:48.736Z,1.60
2023-03-10T05:57:16.809Z,1.60
2023-03-10T05:59:44.908Z,1.60
2023-03-10T06:02:13.338Z,1.60
2023-03-10T06:04:41.354Z,1.50
2023-03-10T06:07:10.753Z,1.50
2023-03-10T06:09:38.836Z,1.50
2023-03-10T06:12:07.439Z,1.60
2023-03-10T06:14:35.660Z,1.60
2023-03-10T06:17:03.720Z,1.50
2023-03-10T06:19:31.855Z,1.50
2023-03-10T06:21:59.891Z,1.50
2023-03-10T06:24:30.625Z,1.50
2023-03-10T06:26:58.763Z,1.40
2023-03-10T06:29:26.841Z,1.40
2023-03-10T06:31:55.091Z,1.40
2023-03-10T06:34:23.223Z,1.50
2023-03-10T06:36:51.264Z,1.40
2023-03-10T06:39:19.323Z,1.50
2023-03-10T06:41:51.747Z,1.50
2023-03-10T06:44:19.820Z,1.50
2023-03-10T06:46:48.008Z,1.50
2023-03-10T06:49:16.112Z,1.40
2023-03-10T06:51:44.153Z,1.40
2023-03-10T06:54:12.178Z,1.50
2023-03-10T06:56:40.266Z,1.40
2023-03-10T06:59:09.675Z,1.50
2023-03-10T07:01:37.697Z,1.40
2023-03-10T07:04:06.009Z,1.40
2023-03-10T07:06:34.048Z,1.40
2023-03-10T07:09:02.099Z,1.40
2023-03-10T07:11:30.237Z,1.40
2023-03-10T07:13:58.318Z,1.50
2023-03-10T07:16:27.787Z,1.50
2023-03-10T07:18:55.856Z,1.50
2023-03-10T07:21:23.900Z,1.60
2023-03-10T07:23:51.990Z,1.60
2023-03-10T07:26:20.594Z,1.50
2023-03-10T07:28:48.981Z,1.50
2023-03-10T07:31:18.098Z,1.50
2023-03-10T07:33:47.575Z,1.50
2023-03-10T07:36:17.535Z,1.50
2023-03-10T07:38:46.162Z,1.50
2023-03-10T07:41:17.403Z,1.60
2023-03-10T07:43:45.990Z,1.60
2023-03-10T07:46:15.914Z,1.50
2023-03-10T07:48:44.712Z,1.60
2023-03-10T07:51:14.397Z,1.70
2023-03-10T07:53:42.695Z,1.60
2023-03-10T07:56:12.547Z,1.60
2023-03-10T07:58:41.119Z,1.70
2023-03-10T08:01:15.229Z,1.70
2023-03-10T08:03:44.379Z,1.70
2023-03-10T08:06:19.634Z,1.70
2023-03-10T08:08:47.982Z,1.70
2023-03-10T08:11:16.352Z,1.70
2023-03-10T08:13:45.969Z,1.70
2023-03-10T08:16:15.076Z,1.60
2023-03-10T08:18:43.795Z,1.70
2023-03-10T08:21:12.513Z,1.70
2023-03-10T08:23:41.984Z,1.70
2023-03-10T08:26:13.938Z,1.70
2023-03-10T08:28:42.697Z,1.60
2023-03-10T08:31:12.386Z,1.70
2023-03-10T08:33:41.053Z,1.70
2023-03-10T08:36:12.272Z,1.70
2023-03-10T08:38:42.279Z,1.60
2023-03-10T08:41:15.839Z,1.60
2023-03-10T08:43:44.678Z,1.60
2023-03-10T08:46:14.342Z,1.60
2023-03-10T08:48:43.118Z,1.60
2023-03-10T08:51:13.787Z,1.60
2023-03-10T08:53:46.609Z,1.60
2023-03-10T08:56:15.967Z,1.70
2023-03-10T08:58:44.039Z,1.70
2023-03-10T09:01:12.222Z,1.60
2023-03-10T09:03:41.676Z,1.60
2023-03-10T09:06:10.157Z,1.70
2023-03-10T09:08:39.697Z,1.70
2023-03-10T09:11:09.387Z,1.70
2023-03-10T09:13:37.449Z,1.70
2023-03-10T09:16:05.958Z,1.70
2023-03-10T09:18:34.132Z,1.70
2023-03-10T09:21:02.886Z,1.70
2023-03-10T09:23:32.095Z,1.70
2023-03-10T09:26:00.223Z,1.70
2023-03-10T09:28:29.628Z,1.80
2023-03-10T09:30:57.674Z,1.80
2023-03-10T09:33:25.876Z,1.80
2023-03-10T09:36:08.251Z,1.70
2023-03-10T09:38:37.173Z,1.70
2023-03-10T09:41:20.083Z,1.70
2023-03-10T09:43:58.665Z,1.70
2023-03-10T09:46:31.821Z,1.70
2023-03-10T09:49:06.137Z,1.70
2023-03-10T09:51:34.245Z,1.70
2023-03-10T09:54:26.164Z,1.70
2023-03-10T09:56:55.897Z,1.70
2023-03-10T09:59:32.762Z,1.70
2023-03-10T10:02:03.022Z,1.70
2023-03-10T10:04:36.924Z,1.70
2023-03-10T10:07:14.802Z,1.80
2023-03-10T10:09:48.387Z,1.70
2023-03-10T10:12:18.612Z,1.70
2023-03-10T10:14:56.955Z,1.70
2023-03-10T10:17:47.265Z,1.80
2023-03-10T10:20:23.681Z,1.80
2023-03-10T10:22:51.773Z,1.80
2023-03-10T10:25:23.129Z,1.80
2023-03-10T10:27:53.911Z,1.80
2023-03-10T10:30:35.449Z,1.90
2023-03-10T10:33:05.346Z,1.80
2023-03-10T10:35:36.080Z,1.80
2023-03-10T10:38:06.821Z,1.90
2023-03-10T10:40:37.661Z,1.80
2023-03-10T10:43:07.698Z,1.80
2023-03-10T10:45:40.408Z,1.90
2023-03-10T10:48:34.082Z,1.80
2023-03-10T10:51:02.298Z,1.80
2023-03-10T10:53:34.360Z,1.80
2023-03-10T10:56:06.100Z,1.80
2023-03-10T10:58:36.650Z,1.80
2023-03-10T11:01:08.408Z,1.80
2023-03-10T11:03:38.173Z,1.80
2023-03-10T11:06:15.904Z,1.80
2023-03-10T11:08:51.251Z,1.70
2023-03-10T11:11:30.345Z,1.70
2023-03-10T11:14:14.273Z,1.80
2023-03-10T11:16:54.627Z,1.80
2023-03-10T11:19:30.064Z,1.80
2023-03-10T11:22:05.611Z,1.80
2023-03-10T11:24:41.729Z,1.90
2023-03-10T11:27:17.092Z,1.90
2023-03-10T11:41:50.373Z,1.80
2023-03-10T11:44:29.559Z,1.80
2023-03-10T11:47:05.311Z,1.80
2023-03-10T11:49:38.257Z,1.80
2023-03-10T11:52:13.429Z,1.80
2023-03-10T11:54:45.068Z,1.80
2023-03-10T11:57:18.659Z,1.80
2023-03-10T11:59:51.218Z,1.80
2023-03-10T12:02:24.686Z,1.70
2023-03-10T12:04:59.966Z,1.80
2023-03-10T12:07:32.788Z,1.80
2023-03-10T12:10:04.268Z,1.90
2023-03-10T12:12:34.589Z,1.90
2023-03-10T12:15:05.848Z,1.80
2023-03-10T12:17:34.601Z,1.90
2023-03-10T12:20:12.066Z,1.80
2023-03-10T12:22:42.229Z,1.80
2023-03-10T12:25:43.912Z,1.90
2023-03-10T12:28:24.266Z,1.90
2023-03-10T12:30:56.425Z,1.80
2023-03-10T12:33:48.260Z,1.80
2023-03-10T12:36:34.456Z,1.80
2023-03-10T12:39:23.004Z,1.90
2023-03-10T12:41:53.184Z,2.00
2023-03-10T12:44:35.287Z,1.80
2023-03-10T12:47:16.782Z,1.80
2023-03-10T12:49:51.786Z,1.80
2023-03-10T12:52:28.427Z,1.80
2023-03-10T12:55:08.686Z,2.00
2023-03-10T12:57:42.035Z,1.90
2023-03-10T13:00:21.456Z,2.00
2023-03-10T13:02:54.109Z,2.00
2023-03-10T13:05:25.789Z,2.10
2023-03-10T13:08:00.609Z,2.00
2023-03-10T13:10:31.744Z,2.00
2023-03-10T13:13:03.790Z,2.10
2023-03-10T13:15:33.921Z,2.00
2023-03-10T13:18:16.851Z,2.10
2023-03-10T13:20:44.911Z,2.00
2023-03-10T13:23:22.848Z,2.10
2023-03-10T13:25:55.480Z,2.00
2023-03-10T13:28:23.987Z,2.10
2023-03-10T13:30:52.377Z,2.10
2023-03-10T13:33:25.630Z,2.10
2023-03-10T13:35:54.487Z,2.10
2023-03-10T13:38:25.340Z,2.20
2023-03-10T14:16:16.647Z,2.30
2023-03-10T14:18:44.899Z,2.40
2023-03-10T14:21:33.420Z,2.40
2023-03-10T14:24:06.453Z,2.40
2023-03-10T14:26:34.972Z,2.40
2023-03-10T14:29:04.735Z,2.40
2023-03-10T14:31:36.537Z,2.40
2023-03-10T14:34:04.731Z,2.40
2023-03-10T14:36:32.912Z,2.30
2023-03-10T14:39:01.032Z,2.30
2023-03-10T14:41:30.255Z,2.30
2023-03-10T14:43:59.896Z,2.40
2023-03-10T14:46:28.800Z,2.30
2023-03-10T14:48:58.621Z,2.50
2023-03-10T14:51:35.478Z,2.40
2023-03-10T14:54:05.085Z,2.50
2023-03-10T14:56:34.293Z,2.40
2023-03-10T14:59:02.874Z,2.50
2023-03-10T15:01:32.005Z,2.40
2023-03-10T15:04:01.452Z,2.40
2023-03-10T15:06:29.612Z,2.40
2023-03-10T15:08:57.719Z,2.40
2023-03-10T15:11:37.061Z,2.40
2023-03-10T15:14:13.227Z,2.40
2023-03-10T15:16:41.316Z,2.40
2023-03-10T15:19:18.010Z,2.40
2023-03-10T15:21:46.172Z,2.40
2023-03-10T15:24:15.456Z,2.40
2023-03-10T15:26:43.888Z,2.40
2023-03-10T15:29:15.087Z,2.40
2023-03-10T15:31:43.289Z,2.30
2023-03-10T15:34:12.725Z,2.30
2023-03-10T15:36:40.853Z,2.40
2023-03-10T15:39:10.973Z,2.40
2023-03-10T15:41:40.968Z,2.40
2023-03-10T15:44:10.023Z,2.40
2023-03-10T15:46:38.832Z,2.40
2023-03-10T15:49:07.003Z,2.50
2023-03-10T15:51:36.503Z,2.50
2023-03-10T15:54:04.814Z,2.50
2023-03-10T15:56:33.979Z,2.50
2023-03-10T15:59:02.227Z,2.50
2023-03-10T16:01:30.257Z,2.40
2023-03-10T16:04:01.575Z,2.50
2023-03-10T16:06:29.942Z,2.40
2023-03-10T16:08:59.434Z,2.50
2023-03-10T16:11:27.586Z,2.50
2023-03-10T16:13:55.652Z,2.40
2023-03-10T16:16:25.443Z,2.40
2023-03-10T16:18:54.224Z,2.40
2023-03-10T16:21:22.756Z,2.40
2023-03-10T16:23:50.820Z,2.30
2023-03-10T16:26:22.170Z,2.30
2023-03-10T16:28:52.618Z,2.20
2023-03-10T16:31:22.715Z,2.20
2023-03-10T16:33:52.089Z,2.10
2023-03-10T16:36:21.868Z,2.10
2023-03-10T16:38:50.486Z,2.00
2023-03-10T16:41:20.394Z,2.00
2023-03-10T16:43:48.678Z,2.00
2023-03-10T16:46:20.178Z,1.90
2023-03-10T16:48:49.227Z,1.90
2023-03-10T16:51:29.272Z,1.90
2023-03-10T16:53:59.243Z,1.90
2023-03-10T16:56:30.121Z,1.80
2023-03-10T16:58:58.778Z,1.80
2023-03-10T17:01:27.164Z,1.80
2023-03-10T17:03:56.125Z,1.80
2023-03-10T17:06:26.729Z,1.70
2023-03-10T17:08:55.906Z,1.70
2023-03-10T17:11:26.515Z,1.70
2023-03-10T17:13:58.038Z,1.70
2023-03-10T17:16:28.363Z,1.60
2023-03-10T17:18:57.495Z,1.60
2023-03-10T17:21:27.803Z,1.60
2023-03-10T17:23:56.417Z,1.60
2023-03-10T17:26:24.882Z,1.60
2023-03-10T17:28:53.293Z,1.60
2023-03-10T17:31:26.921Z,1.50
2023-03-10T17:33:55.606Z,1.50
2023-03-10T17:36:24.134Z,1.50
2023-03-10T17:38:54.041Z,1.50
2023-03-10T17:41:22.424Z,1.50
2023-03-10T17:43:50.806Z,1.50
2023-03-10T17:46:21.595Z,1.50
2023-03-10T17:48:52.102Z,1.50
2023-03-10T17:51:22.282Z,1.50
2023-03-10T17:53:52.079Z,1.40
2023-03-10T17:56:21.939Z,1.50
2023-03-10T17:58:50.724Z,1.40
2023-03-10T18:01:20.991Z,1.40
2023-03-10T18:03:50.563Z,1.40
2023-03-10T18:06:20.708Z,1.40
2023-03-10T18:08:49.037Z,1.40
2023-03-10T18:11:18.832Z,1.40
2023-03-10T18:13:47.038Z,1.30
2023-03-10T18:16:18.678Z,1.30
2023-03-10T18:18:47.006Z,1.30
2023-03-10T18:21:17.571Z,1.30
2023-03-10T18:23:46.441Z,1.30
2023-03-10T18:26:16.729Z,1.40
2023-03-10T18:28:45.070Z,1.30
2023-03-10T18:31:22.501Z,1.30
2023-03-10T18:33:50.682Z,1.30
2023-03-10T18:36:23.186Z,1.30
2023-03-10T18:38:51.769Z,1.30
2023-03-10T18:41:21.241Z,1.30
2023-03-10T18:43:49.506Z,1.30
2023-03-10T18:46:17.686Z,1.30
2023-03-10T18:48:45.824Z,1.30
2023-03-10T18:51:14.654Z,1.30
2023-03-10T18:53:45.154Z,1.20
2023-03-10T18:56:13.297Z,1.20
2023-03-10T18:58:41.380Z,1.20
2023-03-10T19:01:11.845Z,1.20
2023-03-10T19:03:40.144Z,1.20
2023-03-10T19:06:09.518Z,1.20
2023-03-10T19:08:38.566Z,1.20
2023-03-10T19:11:08.263Z,1.20
2023-03-10T19:13:40.345Z,1.20
2023-03-10T19:16:12.283Z,1.20
2023-03-10T19:18:40.572Z,1.20
2023-03-10T19:21:09.507Z,1.20
2023-03-10T19:23:38.107Z,1.20
2023-03-10T19:26:08.942Z,1.20
2023-03-10T19:28:37.798Z,1.20
2023-03-10T19:31:10.589Z,1.10
2023-03-10T19:33:39.816Z,1.10
2023-03-10T19:36:11.778Z,1.20
2023-03-10T19:38:40.805Z,1.20
2023-03-10T19:41:14.919Z,1.10
2023-03-10T19:43:43.796Z,1.10
2023-03-10T19:46:14.055Z,1.10
2023-03-10T19:48:42.505Z,1.10
2023-03-10T19:51:17.349Z,1.10
2023-03-10T19:53:45.406Z,1.10
2023-03-10T19:56:18.004Z,1.10
2023-03-10T19:58:46.845Z,1.10
2023-03-10T20:01:15.505Z,1.10
2023-03-10T20:03:44.103Z,1.10
2023-03-10T20:06:12.472Z,1.10
2023-03-10T20:08:40.535Z,1.10
2023-03-10T20:11:11.816Z,1.10
2023-03-10T20:13:41.997Z,1.10
2023-03-10T20:16:11.006Z,1.10
2023-03-10T20:18:39.223Z,1.10
2023-03-10T20:21:08.029Z,1.10
2023-03-10T20:23:36.472Z,1.10
2023-03-10T20:26:06.454Z,1.10
2023-03-10T20:28:35.838Z,1.10
2023-03-10T20:31:05.667Z,1.10
2023-03-10T20:33:35.125Z,1.10
2023-03-10T20:36:03.381Z,1.10
2023-03-10T20:38:31.525Z,1.10
2023-03-10T20:40:59.584Z,1.00
2023-03-10T20:43:28.148Z,1.00
2023-03-10T20:45:56.272Z,1.00
2023-03-10T20:48:25.779Z,1.10
2023-03-10T20:50:55.989Z,1.10
2023-03-10T20:53:24.232Z,1.00
2023-03-10T20:55:52.348Z,1.00
2023-03-10T20:58:20.406Z,1.00
2023-03-10T21:00:49.081Z,1.10
2023-03-10T21:03:17.148Z,1.10
2023-03-10T21:05:46.802Z,1.10
2023-03-10T21:08:14.869Z,1.10
2023-03-10T21:10:44.515Z,1.10
2023-03-10T21:13:12.832Z,1.10
2023-03-10T21:15:41.552Z,1.10
2023-03-10T21:18:09.629Z,1.10
2023-03-10T21:20:37.679Z,1.10
2023-03-10T21:23:07.195Z,1.10
2023-03-10T21:25:35.298Z,1.10
2023-03-10T21:28:03.563Z,1.10
2023-03-10T21:30:33.580Z,1.10
2023-03-10T21:33:01.776Z,1.00
2023-03-10T21:35:34.070Z,1.10
2023-03-10T21:38:02.408Z,1.10
2023-03-10T21:40:31.934Z,1.00
2023-03-10T21:43:02.524Z,1.10
2023-03-10T21:45:33.404Z,1.10
2023-03-10T21:48:03.054Z,1.10
2023-03-10T21:50:31.399Z,1.00
2023-03-10T21:52:59.751Z,1.00
2023-03-10T21:55:29.351Z,1.00
2023-03-10T21:57:59.357Z,1.00
2023-03-10T22:00:27.549Z,1.00
2023-03-10T22:02:55.625Z,1.00
2023-03-10T22:05:24.218Z,1.00
2023-03-10T22:07:53.325Z,1.00
2023-03-10T22:10:21.544Z,1.00
2023-03-10T22:12:50.041Z,1.00
2023-03-10T22:15:22.341Z,1.00
2023-03-10T22:17:51.813Z,1.00
2023-03-10T22:20:22.212Z,1.00
2023-03-10T22:22:50.258Z,1.00
2023-03-10T22:25:18.763Z,1.00
2023-03-10T22:27:50.397Z,1.00
2023-03-10T22:30:20.702Z,1.00
2023-03-10T22:32:49.568Z,1.00
2023-03-10T22:35:19.191Z,1.00
2023-03-10T22:37:47.263Z,1.00
2023-03-10T22:40:17.146Z,1.00
2023-03-10T22:42:46.610Z,1.00
2023-03-10T22:45:20.565Z,1.00
2023-03-10T22:47:49.436Z,1.00
2023-03-10T22:50:21.771Z,1.00
2023-03-10T22:52:50.356Z,1.00
2023-03-10T22:55:20.105Z,1.00
2023-03-10T22:57:48.150Z,0.90
2023-03-10T23:00:20.105Z,1.00
2023-03-10T23:02:50.695Z,1.00
2023-03-10T23:05:18.883Z,1.00
2023-03-10T23:07:47.656Z,1.00
2023-03-10T23:10:18.093Z,1.00
2023-03-10T23:12:46.323Z,1.00
2023-03-10T23:15:24.796Z,1.00
2023-03-10T23:17:56.047Z,1.00
2023-03-10T23:20:27.261Z,1.10
2023-03-10T23:22:56.418Z,1.10
2023-03-10T23:25:26.345Z,1.00
2023-03-10T23:27:54.620Z,1.00
2023-03-10T23:30:23.424Z,1.10
2023-03-10T23:32:52.009Z,1.00
2023-03-10T23:35:23.390Z,1.00
2023-03-10T23:37:51.497Z,1.00
2023-03-10T23:40:21.723Z,1.00
2023-03-10T23:42:49.848Z,1.00
2023-03-10T23:45:20.170Z,1.00
2023-03-10T23:47:48.636Z,1.10
2023-03-10T23:50:18.769Z,1.10
2023-03-10T23:52:48.419Z,1.10
2023-03-10T23:55:19.264Z,1.10
2023-03-10T23:57:47.581Z,1.10
